Time;durP1;ratioP1;P1;durP2;ratioP2;P2;SDS_P1;SDS_P2;PMS_P1;PMS_P2;Temp;Humidity;BMP_temperature;BMP_pressure;BME280_temperature;BME280_humidity;BME280_pressure;Samples;Min_cycle;Max_cycle;Signal;HPM_P1;HPM_P2
2022/05/31 00:01:59;;;;;;;;;;;;;;;;;;5049423;28;19925;-65
2022/05/31 00:04:25;;;;;;;;;;;;;;;;;;5049925;28;19986;-65
2022/05/31 00:06:50;;;;;;;;;;;;;;;;;;5034762;28;20000;-65
2022/05/31 00:09:16;;;;;;;;;;;;;;;;;;5033600;28;19956;-65
2022/05/31 00:11:42;;;;;;;;;;;;;;;;;;5033071;28;19921;-65
2022/05/31 00:14:08;;;;;;;;;;;;;;;;;;5034585;28;19968;-65
2022/05/31 00:16:34;;;;;;;;;;;;;;;;;;5033816;28;19925;-65
2022/05/31 00:19:01;;;;;;;;;;;;;;;;;;5032866;28;19921;-65
2022/05/31 00:21:27;;;;;;;;;;;;;;;;;;5034192;28;19925;-65
2022/05/31 00:23:53;;;;;;;;;;;;;;;;;;5033428;28;19974;-65
2022/05/31 00:26:20;;;;;;;;;;;;;;;;;;5034247;28;20008;-65
2022/05/31 00:28:46;;;;;;;;;;;;;;;;;;5034043;28;19921;-65
2022/05/31 00:31:12;;;;;;;;;;;;;;;;;;5033500;28;19925;-65
2022/05/31 00:33:38;;;;;;;;;;;;;;;;;;5034091;28;19969;-65
2022/05/31 00:36:04;;;;;;;;;;;;;;;;;;5032366;28;19921;-65
2022/05/31 00:38:31;;;;;;;;;;;;;;;;;;5033384;28;19921;-65
2022/05/31 00:41:23;;;;;;;;;;;;;;;;;;5032126;28;19925;-65
2022/05/31 00:43:43;;;;;;;;;;;;;;;;;;5033254;28;19927;-65
2022/05/31 00:46:09;;;;;;;;;;;;;;;;;;5033058;28;20496;-65
2022/05/31 00:48:35;;;;;;;;;;;;;;;;;;5033056;28;19971;-65
2022/05/31 00:51:01;;;;;;;;;;;;;;;;;;5033666;28;19925;-65
2022/05/31 00:53:28;;;;;;;;;;;;;;;;;;5033022;28;20059;-65
2022/05/31 00:55:54;;;;;;;;;;;;;;;;;;5033729;28;19921;-65
2022/05/31 00:58:20;;;;;;;;;;;;;;;;;;5033745;28;20011;-65
2022/05/31 01:00:46;;;;;;;;;;;;;;;;;;5031107;28;20003;-65
2022/05/31 01:03:12;;;;;;;;;;;;;;;;;;5033657;28;20019;-65
2022/05/31 01:05:38;;;;;;;;;;;;;;;;;;5013900;28;19996;-65
2022/05/31 01:08:05;;;;;;;;;;;;;;;;;;5019963;28;20369;-65
2022/05/31 01:10:32;;;;;;;;;;;;;;;;;;5033410;28;19960;-65
2022/05/31 01:12:57;;;;;;;;;;;;;;;;;;5032997;28;19921;-65
2022/05/31 01:15:25;;;;;;;;;;;;;;;;;;5030939;28;19990;-65
2022/05/31 01:17:51;;;;;;;;;;;;;;;;;;5032916;28;19967;-65
2022/05/31 01:20:17;;;;;;;;;;;;;;;;;;5033013;28;19956;-65
2022/05/31 01:22:43;;;;;;;;;;;;;;;;;;5031034;28;19921;-65
2022/05/31 01:25:10;;;;;;;;;;;;;;;;;;5033334;28;20569;-65
2022/05/31 01:27:36;;;;;;;;;;;;;;;;;;5033128;28;19960;-65
2022/05/31 01:30:02;;;;;;;;;;;;;;;;;;5032344;28;19978;-65
2022/05/31 01:32:28;;;;;;;;;;;;;;;;;;5032734;28;19921;-65
2022/05/31 01:34:54;;;;;;;;;;;;;;;;;;5033044;28;19932;-65
2022/05/31 01:37:21;;;;;;;;;;;;;;;;;;5032376;28;19921;-65
2022/05/31 01:39:47;;;;;;;;;;;;;;;;;;5032686;28;19971;-65
2022/05/31 01:42:12;;;;;;;;;;;;;;;;;;5032323;28;19925;-65
2022/05/31 01:44:38;;;;;;;;;;;;;;;;;;5032034;28;19925;-65
2022/05/31 01:47:04;;;;;;;;;;;;;;;;;;5032896;28;19928;-65
2022/05/31 01:49:30;;;;;;;;;;;;;;;;;;5032587;28;19921;-65
2022/05/31 01:51:56;;;;;;;;;;;;;;;;;;5032150;28;19925;-65
2022/05/31 01:54:23;;;;;;;;;;;;;;;;;;5032716;28;19948;-65
2022/05/31 01:56:49;;;;;;;;;;;;;;;;;;5032608;28;19921;-65
2022/05/31 01:59:16;;;;;;;;;;;;;;;;;;5031923;28;19944;-65
2022/05/31 02:01:42;;;;;;;;;;;;;;;;;;5031551;28;19975;-65
2022/05/31 02:04:09;;;;;;;;;;;;;;;;;;5032369;28;19925;-65
2022/05/31 02:06:35;;;;;;;;;;;;;;;;;;5031998;28;19925;-65
2022/05/31 02:09:01;;;;;;;;;;;;;;;;;;5032183;28;19925;-65
2022/05/31 02:11:26;;;;;;;;;;;;;;;;;;5031028;28;19921;-65
2022/05/31 02:13:53;;;;;;;;;;;;;;;;;;5031685;28;19964;-66
2022/05/31 02:16:19;;;;;;;;;;;;;;;;;;5032281;28;20294;-66
2022/05/31 02:21:35;;;;;;;;;;;;;;;;;;5031515;28;20306;-66
2022/05/31 02:24:01;;;;;;;;;;;;;;;;;;5031814;28;20008;-65
2022/05/31 02:26:27;;;;;;;;;;;;;;;;;;5047766;28;20004;-66
2022/05/31 02:28:53;;;;;;;;;;;;;;;;;;5031313;28;19971;-66
2022/05/31 02:31:18;;;;;;;;;;;;;;;;;;5032095;28;19925;-66
2022/05/31 02:33:45;;;;;;;;;;;;;;;;;;5030884;28;19987;-66
2022/05/31 02:36:11;;;;;;;;;;;;;;;;;;5031461;28;19929;-65
2022/05/31 02:38:37;;;;;;;;;;;;;;;;;;5032446;28;19948;-65
2022/05/31 02:41:03;;;;;;;;;;;;;;;;;;5031764;28;19929;-65
2022/05/31 02:43:29;;;;;;;;;;;;;;;;;;5031483;28;19990;-65
2022/05/31 02:45:56;;;;;;;;;;;;;;;;;;5031956;28;19970;-65
2022/05/31 02:48:22;;;;;;;;;;;;;;;;;;5032246;28;19925;-65
2022/05/31 02:50:48;;;;;;;;;;;;;;;;;;5031730;28;19932;-65
2022/05/31 02:53:14;;;;;;;;;;;;;;;;;;5031674;28;19929;-65
2022/05/31 02:55:40;;;;;;;;;;;;;;;;;;5031902;28;20430;-65
2022/05/31 02:58:06;;;;;;;;;;;;;;;;;;5032221;28;19943;-65
2022/05/31 03:00:32;;;;;;;;;;;;;;;;;;5031194;28;19925;-65
2022/05/31 03:02:59;;;;;;;;;;;;;;;;;;5047488;28;20566;-65
2022/05/31 03:05:25;;;;;;;;;;;;;;;;;;5031796;28;19932;-66
2022/05/31 03:07:51;;;;;;;;;;;;;;;;;;5031353;28;19925;-66
2022/05/31 03:10:17;;;;;;;;;;;;;;;;;;5031901;28;19921;-66
2022/05/31 03:12:43;;;;;;;;;;;;;;;;;;5032584;28;19921;-66
2022/05/31 03:15:09;;;;;;;;;;;;;;;;;;5034809;28;19972;-66
2022/05/31 03:17:35;;;;;;;;;;;;;;;;;;5035678;28;19960;-66
2022/05/31 03:20:01;;;;;;;;;;;;;;;;;;5034969;28;19921;-65
2022/05/31 03:22:27;;;;;;;;;;;;;;;;;;5034737;28;20375;-65
2022/05/31 03:24:53;;;;;;;;;;;;;;;;;;5035217;28;19921;-65
2022/05/31 03:27:19;;;;;;;;;;;;;;;;;;5035353;28;19925;-66
2022/05/31 03:29:45;;;;;;;;;;;;;;;;;;5049757;28;19983;-65
2022/05/31 03:32:11;;;;;;;;;;;;;;;;;;5035038;28;19921;-65
2022/05/31 03:34:37;;;;;;;;;;;;;;;;;;5035178;28;19951;-65
2022/05/31 03:37:03;;;;;;;;;;;;;;;;;;5034478;28;20055;-65
2022/05/31 03:39:30;;;;;;;;;;;;;;;;;;5050292;28;19929;-65
2022/05/31 03:41:56;;;;;;;;;;;;;;;;;;5034415;28;19929;-65
2022/05/31 03:44:22;;;;;;;;;;;;;;;;;;5034423;28;19921;-65
2022/05/31 03:46:48;;;;;;;;;;;;;;;;;;5034874;28;19928;-65
2022/05/31 03:49:14;;;;;;;;;;;;;;;;;;5033323;28;19921;-66
2022/05/31 03:51:40;;;;;;;;;;;;;;;;;;5049667;28;20381;-66
2022/05/31 03:54:07;;;;;;;;;;;;;;;;;;5034475;28;19925;-66
2022/05/31 03:56:34;;;;;;;;;;;;;;;;;;5034646;28;19965;-66
2022/05/31 03:59:00;;;;;;;;;;;;;;;;;;5049659;28;19921;-66
2022/05/31 04:01:28;;;;;;;;;;;;;;;;;;5034479;28;19921;-66
2022/05/31 04:03:54;;;;;;;;;;;;;;;;;;5034562;28;19982;-65
2022/05/31 04:06:20;;;;;;;;;;;;;;;;;;5034481;28;19929;-65
2022/05/31 04:08:46;;;;;;;;;;;;;;;;;;5034464;28;19968;-66
2022/05/31 04:11:12;;;;;;;;;;;;;;;;;;5034760;28;20372;-66
2022/05/31 04:13:39;;;;;;;;;;;;;;;;;;5033409;28;20019;-66
2022/05/31 04:16:05;;;;;;;;;;;;;;;;;;5034183;28;19928;-66
2022/05/31 04:18:31;;;;;;;;;;;;;;;;;;5034378;28;19928;-66
2022/05/31 04:20:57;;;;;;;;;;;;;;;;;;5033523;28;20011;-66
2022/05/31 04:26:08;;;;;;;;;;;;;;;;;;5034021;28;20373;-66
2022/05/31 04:28:34;;;;;;;;;;;;;;;;;;5033477;28;19921;-66
2022/05/31 04:31:00;;;;;;;;;;;;;;;;;;5049529;28;19921;-66
2022/05/31 04:33:27;;;;;;;;;;;;;;;;;;5033903;28;20000;-66
2022/05/31 04:35:54;;;;;;;;;;;;;;;;;;5033368;28;19975;-65
2022/05/31 04:38:20;;;;;;;;;;;;;;;;;;5032408;28;19921;-65
2022/05/31 04:40:46;;;;;;;;;;;;;;;;;;5033516;28;19952;-65
2022/05/31 04:43:12;;;;;;;;;;;;;;;;;;5033158;28;19925;-65
2022/05/31 04:45:37;;;;;;;;;;;;;;;;;;5033926;28;19921;-66
2022/05/31 04:48:03;;;;;;;;;;;;;;;;;;5032073;28;19921;-66
2022/05/31 04:50:29;;;;;;;;;;;;;;;;;;5033188;28;19921;-66
2022/05/31 04:52:55;;;;;;;;;;;;;;;;;;5033698;28;19956;-66
2022/05/31 04:55:23;;;;;;;;;;;;;;;;;;5033565;28;19929;-66
2022/05/31 04:57:50;;;;;;;;;;;;;;;;;;5033238;28;19952;-66
2022/05/31 05:00:16;;;;;;;;;;;;;;;;;;5033546;28;19935;-66
2022/05/31 05:02:42;;;;;;;;;;;;;;;;;;5049038;28;19921;-66
2022/05/31 05:05:08;;;;;;;;;;;;;;;;;;5032939;28;19936;-65
2022/05/31 05:07:34;;;;;;;;;;;;;;;;;;5033278;28;19943;-65
2022/05/31 05:10:00;;;;;;;;;;;;;;;;;;5032993;28;19943;-65
2022/05/31 05:12:26;;;;;;;;;;;;;;;;;;5032759;28;19955;-65
2022/05/31 05:14:52;;;;;;;;;;;;;;;;;;5033179;28;19929;-65
2022/05/31 05:17:18;;;;;;;;;;;;;;;;;;5031892;28;20000;-65
2022/05/31 05:19:44;;;;;;;;;;;;;;;;;;5032611;28;19921;-65
2022/05/31 05:22:10;;;;;;;;;;;;;;;;;;5033173;28;19921;-65
2022/05/31 05:24:36;;;;;;;;;;;;;;;;;;5033121;28;20019;-65
2022/05/31 05:27:02;;;;;;;;;;;;;;;;;;5032201;28;20011;-65
2022/05/31 05:32:17;;;;;;;;;;;;;;;;;;5022238;28;19928;-65
2022/05/31 05:34:43;;;;;;;;;;;;;;;;;;5032243;28;19926;-66
2022/05/31 05:37:09;;;;;;;;;;;;;;;;;;5031446;28;19925;-66
2022/05/31 05:39:35;;;;;;;;;;;;;;;;;;5032832;28;19984;-66
2022/05/31 05:42:02;;;;;;;;;;;;;;;;;;5030339;28;19984;-66
2022/05/31 05:44:28;;;;;;;;;;;;;;;;;;5033176;28;19920;-66
2022/05/31 05:46:54;;;;;;;;;;;;;;;;;;5031723;28;19928;-65
2022/05/31 05:49:19;;;;;;;;;;;;;;;;;;5031168;28;19921;-65
2022/05/31 05:51:46;;;;;;;;;;;;;;;;;;5047285;28;20011;-66
2022/05/31 05:54:12;;;;;;;;;;;;;;;;;;5031965;28;20020;-66
2022/05/31 05:56:38;;;;;;;;;;;;;;;;;;5031600;28;20008;-66
2022/05/31 05:59:04;;;;;;;;;;;;;;;;;;5032093;28;20004;-66
2022/05/31 06:01:30;;;;;;;;;;;;;;;;;;5032117;28;19987;-66
2022/05/31 06:03:56;;;;;;;;;;;;;;;;;;5030023;28;19921;-66
2022/05/31 06:06:22;;;;;;;;;;;;;;;;;;5032307;28;20306;-66
2022/05/31 06:08:48;;;;;;;;;;;;;;;;;;5031840;28;19925;-66
2022/05/31 06:11:14;;;;;;;;;;;;;;;;;;5031647;28;19925;-66
2022/05/31 06:13:40;;;;;;;;;;;;;;;;;;5031882;28;19995;-66
2022/05/31 06:16:06;;;;;;;;;;;;;;;;;;5031822;28;19952;-66
2022/05/31 06:18:32;;;;;;;;;;;;;;;;;;5031004;28;19932;-65
2022/05/31 06:20:58;;;;;;;;;;;;;;;;;;5031587;28;19925;-65
2022/05/31 06:23:24;;;;;;;;;;;;;;;;;;5032112;28;19952;-64
2022/05/31 06:25:50;;;;;;;;;;;;;;;;;;5032626;28;19925;-64
2022/05/31 06:28:17;;;;;;;;;;;;;;;;;;5032772;28;20067;-64
2022/05/31 06:30:43;;;;;;;;;;;;;;;;;;5030633;28;19928;-63
2022/05/31 06:33:09;;;;;;;;;;;;;;;;;;5030624;28;19929;-65
2022/05/31 06:35:36;;;;;;;;;;;;;;;;;;5026503;28;19929;-65
2022/05/31 06:38:02;;;;;;;;;;;;;;;;;;5029784;28;20050;-64
2022/05/31 06:40:28;;;;;;;;;;;;;;;;;;5021372;28;20058;-66
2022/05/31 06:42:54;;;;;;;;;;;;;;;;;;5029998;28;19921;-66
2022/05/31 06:45:20;;;;;;;;;;;;;;;;;;5030135;28;19960;-65
2022/05/31 06:47:46;;;;;;;;;;;;;;;;;;5030460;28;19947;-65
2022/05/31 06:50:12;;;;;;;;;;;;;;;;;;5034116;28;19928;-65
2022/05/31 06:58:07;;;;;;;;;;;;;;;;;;5035148;28;20273;-65
2022/05/31 07:00:33;;;;;;;;;;;;;;;;;;5034665;28;19929;-64
2022/05/31 07:02:59;;;;;;;;;;;;;;;;;;5030948;28;19956;-65
2022/05/31 07:05:25;;;;;;;;;;;;;;;;;;5032893;28;19925;-65
2022/05/31 07:07:51;;;;;;;;;;;;;;;;;;5033214;28;19925;-64
2022/05/31 07:10:17;;;;;;;;;;;;;;;;;;5033286;28;19921;-65
2022/05/31 07:12:43;;;;;;;;;;;;;;;;;;5034700;28;19993;-67
2022/05/31 07:15:09;;;;;;;;;;;;;;;;;;5032049;28;20024;-64
2022/05/31 07:17:35;;;;;;;;;;;;;;;;;;5033683;28;20019;-63
2022/05/31 07:20:01;;;;;;;;;;;;;;;;;;5032587;28;19925;-63
2022/05/31 07:22:27;;;;;;;;;;;;;;;;;;5034354;28;19925;-64
2022/05/31 07:24:53;;;;;;;;;;;;;;;;;;5032372;28;19929;-63
2022/05/31 07:27:19;;;;;;;;;;;;;;;;;;5032278;28;19979;-64
2022/05/31 07:29:45;;;;;;;;;;;;;;;;;;5034620;28;19928;-63
2022/05/31 07:32:11;;;;;;;;;;;;;;;;;;5033875;28;19925;-63
2022/05/31 07:34:37;;;;;;;;;;;;;;;;;;5033381;28;19952;-63
2022/05/31 07:37:03;;;;;;;;;;;;;;;;;;5031854;28;19949;-64
2022/05/31 07:39:29;;;;;;;;;;;;;;;;;;5032074;28;20000;-64
2022/05/31 07:41:56;;;;;;;;;;;;;;;;;;5033083;28;19925;-64
2022/05/31 07:44:25;;;;;;;;;;;;;;;;;;5028930;28;19925;-64
2022/05/31 07:46:51;;;;;;;;;;;;;;;;;;5029481;28;19925;-63
2022/05/31 07:49:17;;;;;;;;;;;;;;;;;;5032913;28;19921;-63
2022/05/31 07:51:43;;;;;;;;;;;;;;;;;;5032726;28;19971;-64
2022/05/31 07:54:09;;;;;;;;;;;;;;;;;;5032923;28;19929;-64
2022/05/31 07:56:35;;;;;;;;;;;;;;;;;;5029385;28;19937;-64
2022/05/31 07:59:01;;;;;;;;;;;;;;;;;;5031397;28;19925;-66
2022/05/31 08:01:27;;;;;;;;;;;;;;;;;;5033239;28;19925;-65
2022/05/31 08:03:53;;;;;;;;;;;;;;;;;;5032789;28;19921;-64
2022/05/31 08:06:19;;;;;;;;;;;;;;;;;;5030979;28;19948;-62
2022/05/31 08:08:45;;;;;;;;;;;;;;;;;;5032588;28;19921;-64
2022/05/31 08:11:11;;;;;;;;;;;;;;;;;;5032122;28;20043;-64
2022/05/31 08:13:37;;;;;;;;;;;;;;;;;;5048835;28;19921;-63
2022/05/31 08:16:03;;;;;;;;;;;;;;;;;;5048207;28;19963;-64
2022/05/31 08:18:29;;;;;;;;;;;;;;;;;;5031597;28;19932;-63
2022/05/31 08:20:55;;;;;;;;;;;;;;;;;;5034095;28;20004;-64
2022/05/31 08:23:21;;;;;;;;;;;;;;;;;;5033474;28;19971;-63
2022/05/31 08:25:47;;;;;;;;;;;;;;;;;;5031861;28;19949;-63
2022/05/31 08:28:13;;;;;;;;;;;;;;;;;;5032515;28;19921;-63
2022/05/31 08:30:39;;;;;;;;;;;;;;;;;;5031843;28;19925;-64
2022/05/31 08:33:05;;;;;;;;;;;;;;;;;;5029555;28;19925;-64
2022/05/31 08:35:31;;;;;;;;;;;;;;;;;;5032237;28;19979;-65
2022/05/31 08:37:57;;;;;;;;;;;;;;;;;;5032907;28;19925;-65
2022/05/31 08:40:23;;;;;;;;;;;;;;;;;;5032275;28;19971;-65
2022/05/31 08:42:49;;;;;;;;;;;;;;;;;;5032104;28;19929;-63
2022/05/31 08:45:15;;;;;;;;;;;;;;;;;;5031483;28;19947;-64
2022/05/31 08:47:41;;;;;;;;;;;;;;;;;;5031910;28;20446;-64
2022/05/31 08:52:52;;;;;;;;;;;;;;;;;;5048243;28;20316;-63
2022/05/31 08:58:02;;;;;;;;;;;;;;;;;;5030642;28;20280;-64
2022/05/31 09:00:28;;;;;;;;;;;;;;;;;;5033418;28;19928;-64
2022/05/31 09:02:54;;;;;;;;;;;;;;;;;;5032012;28;19928;-63
2022/05/31 09:05:22;;;;;;;;;;;;;;;;;;5031964;28;19921;-65
2022/05/31 09:07:48;;;;;;;;;;;;;;;;;;5032253;28;19921;-65
2022/05/31 09:10:15;;;;;;;;;;;;;;;;;;5029671;28;19970;-64
2022/05/31 09:12:40;;;;;;;;;;;;;;;;;;5032284;28;19925;-63
2022/05/31 09:15:08;;;;;;;;;;;;;;;;;;5031480;28;19925;-64
2022/05/31 09:17:35;;;;;;;;;;;;;;;;;;5031206;28;19952;-65
2022/05/31 09:20:01;;;;;;;;;;;;;;;;;;5031874;28;20632;-64
2022/05/31 09:22:27;;;;;;;;;;;;;;;;;;5031379;28;19921;-64
2022/05/31 09:24:53;;;;;;;;;;;;;;;;;;5030586;28;20086;-65
2022/05/31 09:27:19;;;;;;;;;;;;;;;;;;5031096;28;19925;-65
2022/05/31 09:29:45;;;;;;;;;;;;;;;;;;5030873;28;19948;-64
2022/05/31 09:32:12;;;;;;;;;;;;;;;;;;5031462;28;19925;-65
2022/05/31 09:34:38;;;;;;;;;;;;;;;;;;5030790;28;19925;-63
2022/05/31 09:37:04;;;;;;;;;;;;;;;;;;5030528;28;19921;-64
2022/05/31 09:39:30;;;;;;;;;;;;;;;;;;5031058;28;19921;-64
2022/05/31 09:41:58;;;;;;;;;;;;;;;;;;5030519;28;19925;-65
2022/05/31 09:44:24;;;;;;;;;;;;;;;;;;5030755;28;19925;-64
2022/05/31 09:46:51;;;;;;;;;;;;;;;;;;5027698;28;19965;-64
2022/05/31 09:49:17;;;;;;;;;;;;;;;;;;5030479;28;19920;-63
2022/05/31 09:51:43;;;;;;;;;;;;;;;;;;5032130;28;19927;-63
2022/05/31 09:57:06;;;;;;;;;;;;;;;;;;5032139;28;20279;-63
2022/05/31 09:59:32;;;;;;;;;;;;;;;;;;5032273;28;19921;-64
2022/05/31 10:01:58;;;;;;;;;;;;;;;;;;5029132;28;19925;-64
2022/05/31 10:04:24;;;;;;;;;;;;;;;;;;5029318;28;20437;-64
2022/05/31 10:06:50;;;;;;;;;;;;;;;;;;5032223;28;19925;-64
2022/05/31 10:09:16;;;;;;;;;;;;;;;;;;5028908;28;19921;-65
2022/05/31 10:11:45;;;;;;;;;;;;;;;;;;5030131;28;19932;-64
2022/05/31 10:14:11;;;;;;;;;;;;;;;;;;5029931;28;19965;-64
2022/05/31 10:16:40;;;;;;;;;;;;;;;;;;5030620;28;20386;-66
2022/05/31 10:19:06;;;;;;;;;;;;;;;;;;5029722;28;19932;-64
2022/05/31 10:21:32;;;;;;;;;;;;;;;;;;5030244;28;19929;-65
2022/05/31 10:23:58;;;;;;;;;;;;;;;;;;5046097;28;19921;-63
2022/05/31 10:26:24;;;;;;;;;;;;;;;;;;5030263;28;19931;-64
2022/05/31 10:28:51;;;;;;;;;;;;;;;;;;5030973;28;19936;-65
2022/05/31 10:31:17;;;;;;;;;;;;;;;;;;5030932;28;19929;-64
2022/05/31 10:33:43;;;;;;;;;;;;;;;;;;5029865;28;19921;-64
2022/05/31 10:36:09;;;;;;;;;;;;;;;;;;5030053;28;19978;-64
2022/05/31 10:38:35;;;;;;;;;;;;;;;;;;5030081;28;20334;-64
2022/05/31 10:41:01;;;;;;;;;;;;;;;;;;5029521;28;20619;-64
2022/05/31 10:43:27;;;;;;;;;;;;;;;;;;5030240;28;20008;-64
2022/05/31 10:45:53;;;;;;;;;;;;;;;;;;5029813;28;19922;-64
2022/05/31 10:48:19;;;;;;;;;;;;;;;;;;5030868;28;19925;-64
2022/05/31 10:50:45;;;;;;;;;;;;;;;;;;5030484;28;19921;-64
2022/05/31 10:53:12;;;;;;;;;;;;;;;;;;5030379;28;19975;-65
2022/05/31 10:55:38;;;;;;;;;;;;;;;;;;5046321;28;19936;-65
2022/05/31 10:58:04;;;;;;;;;;;;;;;;;;5030337;28;19925;-64
2022/05/31 11:00:30;;;;;;;;;;;;;;;;;;5029977;28;19928;-64
2022/05/31 11:02:56;;;;;;;;;;;;;;;;;;5030359;28;19921;-64
2022/05/31 11:05:22;;;;;;;;;;;;;;;;;;5030792;28;19921;-64
2022/05/31 11:11:28;;;;;;;;;;;;;;;;;;5030195;28;19921;-64
2022/05/31 11:13:19;;;;;;;;;;;;;;;;;;5046484;28;20322;-66
2022/05/31 11:15:45;;;;;;;;;;;;;;;;;;5029641;28;19925;-66
2022/05/31 11:18:12;;;;;;;;;;;;;;;;;;5030648;28;20016;-64
2022/05/31 11:20:38;;;;;;;;;;;;;;;;;;5031464;28;19939;-64
2022/05/31 11:23:04;;;;;;;;;;;;;;;;;;5030789;28;20051;-64
2022/05/31 11:25:30;;;;;;;;;;;;;;;;;;5029358;28;20304;-64
2022/05/31 11:27:56;;;;;;;;;;;;;;;;;;5028986;28;20456;-64
2022/05/31 11:30:22;;;;;;;;;;;;;;;;;;5030239;28;19932;-65
2022/05/31 11:32:48;;;;;;;;;;;;;;;;;;5031784;28;20010;-63
2022/05/31 11:35:15;;;;;;;;;;;;;;;;;;5033964;28;19956;-63
2022/05/31 11:37:41;;;;;;;;;;;;;;;;;;5032868;28;19932;-66
2022/05/31 11:40:07;;;;;;;;;;;;;;;;;;5033445;28;19925;-65
2022/05/31 11:42:34;;;;;;;;;;;;;;;;;;5033186;28;19921;-65
2022/05/31 11:45:00;;;;;;;;;;;;;;;;;;5033783;28;20443;-63
2022/05/31 11:47:26;;;;;;;;;;;;;;;;;;5033699;28;20004;-63
2022/05/31 11:49:51;;;;;;;;;;;;;;;;;;5034238;28;19932;-64
2022/05/31 11:52:17;;;;;;;;;;;;;;;;;;5033569;28;19956;-64
2022/05/31 11:54:43;;;;;;;;;;;;;;;;;;5033589;28;19929;-63
2022/05/31 11:57:09;;;;;;;;;;;;;;;;;;5033947;28;19964;-64
2022/05/31 11:59:35;;;;;;;;;;;;;;;;;;5033281;28;20016;-63
2022/05/31 12:02:01;;;;;;;;;;;;;;;;;;5032200;28;19947;-63
2022/05/31 12:04:28;;;;;;;;;;;;;;;;;;5033360;28;19921;-64
2022/05/31 12:06:54;;;;;;;;;;;;;;;;;;5031416;28;19928;-64
2022/05/31 12:09:20;;;;;;;;;;;;;;;;;;5032039;28;19925;-65
2022/05/31 12:11:46;;;;;;;;;;;;;;;;;;5032518;28;19964;-66
2022/05/31 12:14:12;;;;;;;;;;;;;;;;;;5029576;28;19971;-66
2022/05/31 12:16:38;;;;;;;;;;;;;;;;;;5031458;28;19925;-65
2022/05/31 12:19:04;;;;;;;;;;;;;;;;;;5029230;28;19932;-65
2022/05/31 12:21:30;;;;;;;;;;;;;;;;;;5031460;28;20391;-65
2022/05/31 12:23:57;;;;;;;;;;;;;;;;;;5032947;28;19921;-64
2022/05/31 12:26:23;;;;;;;;;;;;;;;;;;5032112;28;19967;-67
2022/05/31 12:28:49;;;;;;;;;;;;;;;;;;5032171;28;19979;-64
2022/05/31 12:31:16;;;;;;;;;;;;;;;;;;5031747;28;19928;-65
2022/05/31 12:33:46;;;;;;;;;;;;;;;;;;5032606;28;19921;-65
2022/05/31 12:36:12;;;;;;;;;;;;;;;;;;5028123;28;19949;-64
2022/05/31 12:38:38;;;;;;;;;;;;;;;;;;5032414;28;20410;-64
2022/05/31 12:41:04;;;;;;;;;;;;;;;;;;5032476;28;19948;-65
2022/05/31 12:43:30;;;;;;;;;;;;;;;;;;5031792;28;20076;-66
2022/05/31 12:45:57;;;;;;;;;;;;;;;;;;5031706;28;19927;-64
2022/05/31 12:48:23;;;;;;;;;;;;;;;;;;5031773;28;19949;-65
2022/05/31 12:50:49;;;;;;;;;;;;;;;;;;5029754;28;19929;-64
2022/05/31 12:53:19;;;;;;;;;;;;;;;;;;5031943;28;20012;-64
2022/05/31 12:55:46;;;;;;;;;;;;;;;;;;5031788;28;19924;-66
2022/05/31 12:58:27;;;;;;;;;;;;;;;;;;5031168;28;19924;-64
2022/05/31 13:00:56;;;;;;;;;;;;;;;;;;5032600;28;19921;-64
2022/05/31 13:03:22;;;;;;;;;;;;;;;;;;5028776;28;19944;-65
2022/05/31 13:05:48;;;;;;;;;;;;;;;;;;5026320;28;19925;-66
2022/05/31 13:08:14;;;;;;;;;;;;;;;;;;5031331;28;19943;-64
2022/05/31 13:19:34;;;;;;;;;;;;;;;;;;5029913;28;19925;-64
2022/05/31 13:21:47;;;;;;;;;;;;;;;;;;5021806;28;20455;-64
2022/05/31 13:24:13;;;;;;;;;;;;;;;;;;5031724;28;19921;-64
2022/05/31 13:26:39;;;;;;;;;;;;;;;;;;5031254;28;19948;-64
2022/05/31 13:29:07;;;;;;;;;;;;;;;;;;5026375;28;19944;-64
2022/05/31 13:31:35;;;;;;;;;;;;;;;;;;5029682;28;19921;-64
2022/05/31 13:34:01;;;;;;;;;;;;;;;;;;5031556;28;19921;-65
2022/05/31 13:36:26;;;;;;;;;;;;;;;;;;5031362;28;19921;-64
2022/05/31 13:38:52;;;;;;;;;;;;;;;;;;5031712;28;19921;-64
2022/05/31 13:41:18;;;;;;;;;;;;;;;;;;5031708;28;19955;-64
2022/05/31 13:43:44;;;;;;;;;;;;;;;;;;5030892;28;20071;-65
2022/05/31 13:46:10;;;;;;;;;;;;;;;;;;5030878;28;20004;-64
2022/05/31 13:48:36;;;;;;;;;;;;;;;;;;5020650;28;20016;-64
2022/05/31 13:51:02;;;;;;;;;;;;;;;;;;5023923;28;19921;-64
2022/05/31 13:53:28;;;;;;;;;;;;;;;;;;5031061;28;20379;-65
2022/05/31 13:55:56;;;;;;;;;;;;;;;;;;5027418;28;19991;-64
2022/05/31 13:58:24;;;;;;;;;;;;;;;;;;5027893;28;19929;-65
2022/05/31 14:00:50;;;;;;;;;;;;;;;;;;5029518;28;19968;-64
2022/05/31 14:03:16;;;;;;;;;;;;;;;;;;5030079;28;20445;-66
2022/05/31 14:05:42;;;;;;;;;;;;;;;;;;5030735;28;19925;-65
2022/05/31 14:08:08;;;;;;;;;;;;;;;;;;5031175;28;20363;-66
2022/05/31 14:10:34;;;;;;;;;;;;;;;;;;5029841;28;19928;-65
2022/05/31 14:13:01;;;;;;;;;;;;;;;;;;5030457;28;19921;-66
2022/05/31 14:15:27;;;;;;;;;;;;;;;;;;5031256;28;19975;-66
2022/05/31 14:17:52;;;;;;;;;;;;;;;;;;5029876;28;19925;-66
2022/05/31 14:20:20;;;;;;;;;;;;;;;;;;5028983;28;20020;-67
2022/05/31 14:22:46;;;;;;;;;;;;;;;;;;5030369;28;19927;-66
2022/05/31 14:25:12;;;;;;;;;;;;;;;;;;5024934;28;20391;-68
2022/05/31 14:27:38;;;;;;;;;;;;;;;;;;5030014;28;19921;-65
2022/05/31 14:30:03;;;;;;;;;;;;;;;;;;5031052;28;19925;-66
2022/05/31 14:32:29;;;;;;;;;;;;;;;;;;5030940;28;19926;-65
2022/05/31 14:34:55;;;;;;;;;;;;;;;;;;5029152;28;19925;-64
2022/05/31 14:37:21;;;;;;;;;;;;;;;;;;5031266;28;20348;-65
2022/05/31 14:39:47;;;;;;;;;;;;;;;;;;5028789;28;20027;-66
2022/05/31 14:42:13;;;;;;;;;;;;;;;;;;5027704;28;19959;-67
2022/05/31 14:44:40;;;;;;;;;;;;;;;;;;5030765;28;19929;-69
2022/05/31 14:47:06;;;;;;;;;;;;;;;;;;5027074;28;19956;-67
2022/05/31 14:49:32;;;;;;;;;;;;;;;;;;5020294;28;19952;-67
2022/05/31 14:51:58;;;;;;;;;;;;;;;;;;5022414;28;19925;-67
2022/05/31 14:54:24;;;;;;;;;;;;;;;;;;5030997;28;19925;-68
2022/05/31 14:56:50;;;;;;;;;;;;;;;;;;5027270;28;19948;-67
2022/05/31 14:59:16;;;;;;;;;;;;;;;;;;5030949;28;20004;-67
2022/05/31 15:01:45;;;;;;;;;;;;;;;;;;5029863;28;19921;-68
2022/05/31 15:04:11;;;;;;;;;;;;;;;;;;5028809;28;19925;-67
2022/05/31 15:06:37;;;;;;;;;;;;;;;;;;5027583;28;20020;-67
2022/05/31 15:09:03;;;;;;;;;;;;;;;;;;5032644;28;20007;-68
2022/05/31 15:19:43;;;;;;;;;;;;;;;;;;5034244;28;20510;-68
2022/05/31 15:22:09;;;;;;;;;;;;;;;;;;5034954;28;19956;-68
2022/05/31 15:24:35;;;;;;;;;;;;;;;;;;5034333;28;19925;-67
2022/05/31 15:27:01;;;;;;;;;;;;;;;;;;5034127;28;19921;-68
2022/05/31 15:29:27;;;;;;;;;;;;;;;;;;5034245;28;19971;-68
2022/05/31 15:31:53;;;;;;;;;;;;;;;;;;5034591;28;19967;-68
2022/05/31 15:34:19;;;;;;;;;;;;;;;;;;5032565;28;20007;-68
2022/05/31 15:36:45;;;;;;;;;;;;;;;;;;5033276;28;20000;-68
2022/05/31 15:39:11;;;;;;;;;;;;;;;;;;5034216;28;19964;-68
2022/05/31 15:41:38;;;;;;;;;;;;;;;;;;5033499;28;19979;-68
2022/05/31 15:44:04;;;;;;;;;;;;;;;;;;5033201;28;19921;-67
2022/05/31 15:46:31;;;;;;;;;;;;;;;;;;5032783;28;20484;-67
2022/05/31 15:48:57;;;;;;;;;;;;;;;;;;5033005;28;19927;-67
2022/05/31 15:51:23;;;;;;;;;;;;;;;;;;5034374;28;19925;-67
2022/05/31 15:53:49;;;;;;;;;;;;;;;;;;5034173;28;20011;-68
2022/05/31 15:56:15;;;;;;;;;;;;;;;;;;5033346;28;19948;-67
2022/05/31 15:58:41;;;;;;;;;;;;;;;;;;5033969;28;20031;-67
2022/05/31 16:01:07;;;;;;;;;;;;;;;;;;5034411;28;20012;-67
2022/05/31 16:03:33;;;;;;;;;;;;;;;;;;5029373;28;19952;-67
2022/05/31 16:05:59;;;;;;;;;;;;;;;;;;5032161;28;19944;-67
2022/05/31 16:08:25;;;;;;;;;;;;;;;;;;5033831;28;19925;-67
2022/05/31 16:10:51;;;;;;;;;;;;;;;;;;5033596;28;19925;-67
2022/05/31 16:13:17;;;;;;;;;;;;;;;;;;5049424;28;19929;-67
2022/05/31 16:15:43;;;;;;;;;;;;;;;;;;5034089;28;20342;-67
2022/05/31 16:18:09;;;;;;;;;;;;;;;;;;5033557;28;20306;-67
2022/05/31 16:20:35;;;;;;;;;;;;;;;;;;5032898;28;19929;-67
2022/05/31 16:23:01;;;;;;;;;;;;;;;;;;5034211;28;19928;-67
2022/05/31 16:25:27;;;;;;;;;;;;;;;;;;5033459;28;19921;-67
2022/05/31 16:27:53;;;;;;;;;;;;;;;;;;5034190;28;19921;-67
2022/05/31 16:30:19;;;;;;;;;;;;;;;;;;5034108;28;19927;-67
2022/05/31 16:32:45;;;;;;;;;;;;;;;;;;5033480;28;19959;-67
2022/05/31 16:35:11;;;;;;;;;;;;;;;;;;5033892;28;19932;-67
2022/05/31 16:43:06;;;;;;;;;;;;;;;;;;5033594;28;20386;-67
2022/05/31 16:45:32;;;;;;;;;;;;;;;;;;5033592;28;19925;-67
2022/05/31 16:47:58;;;;;;;;;;;;;;;;;;5033229;28;19921;-67
2022/05/31 16:50:25;;;;;;;;;;;;;;;;;;5033687;28;19921;-67
2022/05/31 16:52:51;;;;;;;;;;;;;;;;;;5033366;28;19925;-67
2022/05/31 16:55:17;;;;;;;;;;;;;;;;;;5032805;28;19929;-67
2022/05/31 16:57:43;;;;;;;;;;;;;;;;;;5033534;28;19921;-67
2022/05/31 17:00:10;;;;;;;;;;;;;;;;;;5033415;28;19928;-67
2022/05/31 17:02:36;;;;;;;;;;;;;;;;;;5032729;28;19921;-67
2022/05/31 17:05:03;;;;;;;;;;;;;;;;;;5033477;28;19925;-67
2022/05/31 17:15:42;;;;;;;;;;;;;;;;;;5033240;28;20276;-67
2022/05/31 17:18:09;;;;;;;;;;;;;;;;;;5032610;28;19925;-67
2022/05/31 17:20:35;;;;;;;;;;;;;;;;;;5033174;28;19925;-67
2022/05/31 17:23:01;;;;;;;;;;;;;;;;;;5032646;28;19921;-67
2022/05/31 17:25:27;;;;;;;;;;;;;;;;;;5031964;28;19925;-67
2022/05/31 17:27:53;;;;;;;;;;;;;;;;;;5032853;28;19921;-67
2022/05/31 17:30:19;;;;;;;;;;;;;;;;;;5032467;28;19925;-67
2022/05/31 17:32:45;;;;;;;;;;;;;;;;;;5030794;28;19921;-67
2022/05/31 17:35:10;;;;;;;;;;;;;;;;;;5032753;28;19956;-67